Maurepas, Louisiana
Current Conditions -  °F | °C
As of 10:15 AM on Thursday 29 Jan 2015 (Local Time) from K1L0 Reporting Station
Clear Clear  
Wind Chill: 69°   Ceiling: Unl
Heat Index: 69°   Visibility: 10mi
Dew Point: 57°   Wind: 5mph
Humidity: 65%   Direction: 220°SW
Pressure: 30.27"   Gusts: NA
Location:  30.3°N, 90.66°W
Report Text: K1L0 291615Z AUTO 22004KT 10SM CLR 21/14 A3027 RMK AO2 T02060137
Loading
Personal Weather Stations






























Interactive Weather Map New forecast layout! Learn more

10-Day Weather Forecast

Advertisements
Track Severe Weather on mobile